createdAt,value
2018-08-23T00:00:41.568Z,18.57
2018-08-23T00:01:41.551Z,18.52
2018-08-23T00:02:41.537Z,18.47
2018-08-23T00:03:41.634Z,18.44
2018-08-23T00:04:41.509Z,18.33
2018-08-23T00:05:41.495Z,18.32
2018-08-23T00:06:41.481Z,18.30
2018-08-23T00:07:41.477Z,18.29
2018-08-23T00:08:41.456Z,18.25
2018-08-23T00:09:41.455Z,18.18
2018-08-23T00:10:41.425Z,18.15
2018-08-23T00:11:41.421Z,18.20
2018-08-23T00:12:41.399Z,18.26
2018-08-23T00:13:41.402Z,18.41
2018-08-23T00:14:41.369Z,18.39
2018-08-23T00:15:41.354Z,18.39
2018-08-23T00:16:41.387Z,18.37
2018-08-23T00:17:41.325Z,18.32
2018-08-23T00:18:41.311Z,18.17
2018-08-23T00:19:41.296Z,18.25
2018-08-23T00:20:41.283Z,18.25
2018-08-23T00:21:41.270Z,18.08
2018-08-23T00:22:41.252Z,18.03
2018-08-23T00:23:41.242Z,18.08
2018-08-23T00:24:41.226Z,17.97
2018-08-23T00:25:41.212Z,18.02
2018-08-23T00:26:41.196Z,17.90
2018-08-23T00:27:41.183Z,17.95
2018-08-23T00:28:41.172Z,17.90
2018-08-23T00:29:41.153Z,17.79
2018-08-23T00:30:41.139Z,17.77
2018-08-23T00:31:41.124Z,17.75
2018-08-23T00:32:41.113Z,17.70
2018-08-23T00:33:41.100Z,17.79
2018-08-23T00:34:41.083Z,17.75
2018-08-23T00:35:41.067Z,17.56
2018-08-23T00:36:41.057Z,17.58
2018-08-23T00:37:41.045Z,17.59
2018-08-23T00:38:41.025Z,17.54
2018-08-23T00:39:41.014Z,17.64
2018-08-23T00:40:40.995Z,17.66
2018-08-23T00:41:40.980Z,17.68
2018-08-23T00:42:40.976Z,17.64
2018-08-23T00:43:40.951Z,17.66
2018-08-23T00:44:40.942Z,17.62
2018-08-23T00:45:40.922Z,17.72
2018-08-23T00:46:40.908Z,17.79
2018-08-23T00:47:40.895Z,17.78
2018-08-23T00:48:40.880Z,17.81
2018-08-23T00:49:40.869Z,17.77
2018-08-23T00:50:40.850Z,17.79
2018-08-23T00:51:40.836Z,17.72
2018-08-23T00:52:40.827Z,17.78
2018-08-23T00:53:40.807Z,17.77
2018-08-23T00:54:40.791Z,17.84
2018-08-23T00:55:40.777Z,17.68
2018-08-23T00:56:40.763Z,17.78
2018-08-23T00:57:40.747Z,17.77
2018-08-23T00:58:40.732Z,17.75
2018-08-23T00:59:40.726Z,17.74
2018-08-23T01:00:40.703Z,17.64
2018-08-23T01:01:40.687Z,17.59
2018-08-23T01:02:40.675Z,17.59
2018-08-23T01:03:40.660Z,17.66
2018-08-23T01:04:40.646Z,17.55
2018-08-23T01:05:40.631Z,17.63
2018-08-23T01:06:40.616Z,17.62
2018-08-23T01:07:40.601Z,17.58
2018-08-23T01:08:40.585Z,17.56
2018-08-23T01:09:40.571Z,17.56
2018-08-23T01:10:40.556Z,17.56
2018-08-23T01:11:40.541Z,17.55
2018-08-23T01:12:40.526Z,17.44
2018-08-23T01:13:40.510Z,17.46
2018-08-23T01:14:40.497Z,17.55
2018-08-23T01:15:40.482Z,17.46
2018-08-23T01:16:40.469Z,17.46
2018-08-23T01:17:40.453Z,17.41
2018-08-23T01:18:40.438Z,17.49
2018-08-23T01:19:40.424Z,17.41
2018-08-23T01:20:40.415Z,17.41
2018-08-23T01:21:40.393Z,17.44
2018-08-23T01:22:40.379Z,17.43
2018-08-23T01:23:40.363Z,17.41
2018-08-23T01:24:40.351Z,17.37
2018-08-23T01:25:40.332Z,17.28
2018-08-23T01:26:40.316Z,17.28
2018-08-23T01:27:40.303Z,17.21
2018-08-23T01:28:40.292Z,17.15
2018-08-23T01:29:40.276Z,17.16
2018-08-23T01:30:40.262Z,17.14
2018-08-23T01:31:40.244Z,17.19
2018-08-23T01:32:40.232Z,17.30
2018-08-23T01:33:40.214Z,17.34
2018-08-23T01:34:40.201Z,17.23
2018-08-23T01:35:40.188Z,17.30
2018-08-23T01:36:40.169Z,17.28
2018-08-23T01:37:40.157Z,17.26
2018-08-23T01:38:40.139Z,17.41
2018-08-23T01:39:40.124Z,17.28
2018-08-23T01:40:40.108Z,17.23
2018-08-23T01:41:40.096Z,17.31
2018-08-23T01:42:40.081Z,17.36
2018-08-23T01:43:40.064Z,17.28
2018-08-23T01:44:40.049Z,17.22
2018-08-23T01:45:40.033Z,17.19
2018-08-23T01:46:40.019Z,17.25
2018-08-23T01:47:40.004Z,17.21
2018-08-23T01:48:39.989Z,17.14
2018-08-23T01:49:39.972Z,17.16
2018-08-23T01:50:39.957Z,17.21
2018-08-23T01:51:39.944Z,17.14
2018-08-23T01:52:39.928Z,17.19
2018-08-23T01:53:39.912Z,17.15
2018-08-23T01:54:39.898Z,17.07
2018-08-23T01:55:39.889Z,16.94
2018-08-23T01:56:39.867Z,16.96
2018-08-23T01:57:39.861Z,16.82
2018-08-23T01:58:39.840Z,16.85
2018-08-23T01:59:39.822Z,16.98
2018-08-23T02:00:39.808Z,16.98
2018-08-23T02:01:39.794Z,17.07
2018-08-23T02:02:39.777Z,17.14
2018-08-23T02:03:39.764Z,17.15
2018-08-23T02:04:39.746Z,17.08
2018-08-23T02:05:39.732Z,17.08
2018-08-23T02:06:39.717Z,17.07
2018-08-23T02:07:39.701Z,16.97
2018-08-23T02:08:39.688Z,16.91
2018-08-23T02:09:39.669Z,16.96
2018-08-23T02:10:39.656Z,16.97
2018-08-23T02:11:39.641Z,16.97
2018-08-23T02:12:39.628Z,16.86
2018-08-23T02:13:39.612Z,16.83
2018-08-23T02:14:39.596Z,16.79
2018-08-23T02:15:39.579Z,16.81
2018-08-23T02:16:39.563Z,16.81
2018-08-23T02:17:39.548Z,16.73
2018-08-23T02:18:39.535Z,16.75
2018-08-23T02:19:39.519Z,16.70
2018-08-23T02:20:39.505Z,16.67
2018-08-23T02:21:39.492Z,16.71
2018-08-23T02:22:39.473Z,16.66
2018-08-23T02:23:39.460Z,16.64
2018-08-23T02:24:39.448Z,16.75
2018-08-23T02:25:39.426Z,16.71
2018-08-23T02:26:39.413Z,16.76
2018-08-23T02:27:39.395Z,16.64
2018-08-23T02:28:39.384Z,16.79
2018-08-23T02:29:39.375Z,16.63
2018-08-23T02:30:39.349Z,16.66
2018-08-23T02:31:39.334Z,16.52
2018-08-23T02:32:39.318Z,16.53
2018-08-23T02:33:39.304Z,16.60
2018-08-23T02:34:39.288Z,16.57
2018-08-23T02:35:39.273Z,16.58
2018-08-23T02:36:39.257Z,16.56
2018-08-23T02:37:39.240Z,16.52
2018-08-23T02:38:39.227Z,16.61
2018-08-23T02:39:39.213Z,16.50
2018-08-23T02:40:39.202Z,16.56
2018-08-23T02:41:39.181Z,16.63
2018-08-23T02:42:39.166Z,16.56
2018-08-23T02:43:39.152Z,16.64
2018-08-23T02:44:39.142Z,16.57
2018-08-23T02:45:39.119Z,16.60
2018-08-23T02:46:39.105Z,16.52
2018-08-23T02:47:39.089Z,16.61
2018-08-23T02:48:39.074Z,16.53
2018-08-23T02:49:39.056Z,16.58
2018-08-23T02:50:39.041Z,16.61
2018-08-23T02:51:39.025Z,16.58
2018-08-23T02:52:39.011Z,16.56
2018-08-23T02:53:40.411Z,16.61
2018-08-23T02:54:38.980Z,16.67
2018-08-23T02:55:38.964Z,16.64
2018-08-23T02:56:38.953Z,16.75
2018-08-23T02:57:38.933Z,16.70
2018-08-23T02:58:38.916Z,16.67
2018-08-23T02:59:38.904Z,16.70
2018-08-23T03:00:38.933Z,16.63
2018-08-23T03:01:38.869Z,16.63
2018-08-23T03:02:38.855Z,16.64
2018-08-23T03:03:38.838Z,16.64
2018-08-23T03:04:38.825Z,16.66
2018-08-23T03:05:38.808Z,16.57
2018-08-23T03:06:38.793Z,16.58
2018-08-23T03:07:38.782Z,16.58
2018-08-23T03:08:38.762Z,16.64
2018-08-23T03:09:38.750Z,16.67
2018-08-23T03:10:38.732Z,16.63
2018-08-23T03:11:38.723Z,16.57
2018-08-23T03:12:38.700Z,16.63
2018-08-23T03:13:38.687Z,16.66
2018-08-23T03:14:38.668Z,16.63
2018-08-23T03:15:38.655Z,16.63
2018-08-23T03:16:38.639Z,16.67
2018-08-23T03:17:38.623Z,16.67
2018-08-23T03:18:38.607Z,16.73
2018-08-23T03:19:38.590Z,16.81
2018-08-23T03:20:38.578Z,16.71
2018-08-23T03:21:38.557Z,16.71
2018-08-23T03:22:38.545Z,16.73
2018-08-23T03:23:38.527Z,16.76
2018-08-23T03:24:38.514Z,16.78
2018-08-23T03:25:38.497Z,16.85
2018-08-23T03:26:38.481Z,16.85
2018-08-23T03:27:38.468Z,16.71
2018-08-23T03:28:38.452Z,16.73
2018-08-23T03:29:38.436Z,16.82
2018-08-23T03:30:38.507Z,16.61
2018-08-23T03:31:38.403Z,16.64
2018-08-23T03:32:38.388Z,16.66
2018-08-23T03:33:38.371Z,16.58
2018-08-23T03:34:38.358Z,16.48
2018-08-23T03:35:38.345Z,16.52
2018-08-23T03:36:38.327Z,16.57
2018-08-23T03:37:38.312Z,16.46
2018-08-23T03:38:38.294Z,16.46
2018-08-23T03:39:38.328Z,16.49
2018-08-23T03:40:38.262Z,16.56
2018-08-23T03:41:38.246Z,16.57
2018-08-23T03:42:38.231Z,16.50
2018-08-23T03:43:38.216Z,16.52
2018-08-23T03:44:38.201Z,16.58
2018-08-23T03:45:38.184Z,16.53
2018-08-23T03:46:38.167Z,16.49
2018-08-23T03:47:38.153Z,16.57
2018-08-23T03:48:38.146Z,16.52
2018-08-23T03:49:38.129Z,16.50
2018-08-23T03:50:38.107Z,16.66
2018-08-23T03:51:38.090Z,16.61
2018-08-23T03:52:38.165Z,16.64
2018-08-23T03:53:38.058Z,16.68
2018-08-23T03:54:38.042Z,16.63
2018-08-23T03:55:38.026Z,16.63
2018-08-23T03:56:38.011Z,16.61
2018-08-23T03:57:37.994Z,16.73
2018-08-23T03:58:37.988Z,16.64
2018-08-23T03:59:37.963Z,16.64
2018-08-23T04:00:37.947Z,16.67
2018-08-23T04:01:37.939Z,16.50
2018-08-23T04:02:37.915Z,16.58
2018-08-23T04:03:37.899Z,16.52
2018-08-23T04:04:37.888Z,16.58
2018-08-23T04:05:37.871Z,16.56
2018-08-23T04:06:37.853Z,16.52
2018-08-23T04:07:37.839Z,16.49
2018-08-23T04:08:37.822Z,16.45
2018-08-23T04:09:37.807Z,16.50
2018-08-23T04:10:37.789Z,16.50
2018-08-23T04:11:37.774Z,16.50
2018-08-23T04:12:37.760Z,16.43
2018-08-23T04:13:37.744Z,16.43
2018-08-23T04:14:37.725Z,16.45
2018-08-23T04:15:37.710Z,16.45
2018-08-23T04:16:37.698Z,16.43
2018-08-23T04:17:37.678Z,16.42
2018-08-23T04:18:37.662Z,16.50
2018-08-23T04:19:37.646Z,16.39
2018-08-23T04:20:37.631Z,16.33
2018-08-23T04:21:37.614Z,16.38
2018-08-23T04:22:37.598Z,16.38
2018-08-23T04:23:37.583Z,16.23
2018-08-23T04:24:37.568Z,16.27
2018-08-23T04:25:37.553Z,16.27
2018-08-23T04:26:37.539Z,16.11
2018-08-23T04:27:37.519Z,16.11
2018-08-23T04:28:37.509Z,16.17
2018-08-23T04:29:37.492Z,16.11
2018-08-23T04:30:37.471Z,16.12
2018-08-23T04:31:37.458Z,16.21
2018-08-23T04:32:37.440Z,16.17
2018-08-23T04:33:37.424Z,16.23
2018-08-23T04:34:37.408Z,16.23
2018-08-23T04:35:37.396Z,16.23
2018-08-23T04:36:37.381Z,16.31
2018-08-23T04:37:37.364Z,16.28
2018-08-23T04:38:37.347Z,16.41
2018-08-23T04:39:37.334Z,16.39
2018-08-23T04:40:37.318Z,16.46
2018-08-23T04:41:37.299Z,16.46
2018-08-23T04:42:37.284Z,16.49
2018-08-23T04:43:37.268Z,16.57
2018-08-23T04:44:37.251Z,16.64
2018-08-23T04:45:37.236Z,16.71
2018-08-23T04:46:37.220Z,16.81
2018-08-23T04:47:37.203Z,16.85
2018-08-23T04:48:37.191Z,16.86
2018-08-23T04:49:37.172Z,16.91
2018-08-23T04:50:37.159Z,16.93
2018-08-23T04:51:37.169Z,17.03
2018-08-23T04:52:37.125Z,17.07
2018-08-23T04:53:37.137Z,17.15
2018-08-23T04:54:37.098Z,17.19
2018-08-23T04:55:37.079Z,17.18
2018-08-23T04:56:37.064Z,17.25
2018-08-23T04:57:37.047Z,17.26
2018-08-23T04:58:37.031Z,17.19
2018-08-23T04:59:37.016Z,17.16
2018-08-23T05:00:36.999Z,17.31
2018-08-23T05:01:36.991Z,17.30
2018-08-23T05:02:36.972Z,17.34
2018-08-23T05:03:36.951Z,17.44
2018-08-23T05:04:36.940Z,17.44
2018-08-23T05:05:36.926Z,17.49
2018-08-23T05:06:36.904Z,17.46
2018-08-23T05:07:36.894Z,17.48
2018-08-23T05:08:36.875Z,17.49
2018-08-23T05:09:36.862Z,17.46
2018-08-23T05:10:36.845Z,17.55
2018-08-23T05:11:36.827Z,17.52
2018-08-23T05:12:36.820Z,17.63
2018-08-23T05:13:36.795Z,17.62
2018-08-23T05:14:36.782Z,17.64
2018-08-23T05:15:36.765Z,17.66
2018-08-23T05:16:36.750Z,17.63
2018-08-23T05:17:36.734Z,17.75
2018-08-23T05:18:36.719Z,17.71
2018-08-23T05:19:36.703Z,17.72
2018-08-23T05:20:36.687Z,17.72
2018-08-23T05:21:36.674Z,17.75
2018-08-23T05:22:36.657Z,17.70
2018-08-23T05:23:36.646Z,17.79
2018-08-23T05:24:36.627Z,17.72
2018-08-23T05:25:36.620Z,17.75
2018-08-23T05:26:36.599Z,17.82
2018-08-23T05:27:36.581Z,17.84
2018-08-23T05:28:36.563Z,17.86
2018-08-23T05:29:36.553Z,17.87
2018-08-23T05:30:36.534Z,17.87
2018-08-23T05:31:36.521Z,17.89
2018-08-23T05:32:36.505Z,17.89
2018-08-23T05:33:36.487Z,17.96
2018-08-23T05:34:36.472Z,17.97
2018-08-23T05:35:36.458Z,18.03
2018-08-23T05:36:36.445Z,18.08
2018-08-23T05:37:36.437Z,18.10
2018-08-23T05:38:36.410Z,18.14
2018-08-23T05:39:36.401Z,18.18
2018-08-23T05:40:36.383Z,18.20
2018-08-23T05:41:36.368Z,18.26
2018-08-23T05:42:36.354Z,18.26
2018-08-23T05:43:36.337Z,18.35
2018-08-23T05:44:36.321Z,18.35
2018-08-23T05:45:36.307Z,18.32
2018-08-23T05:46:36.290Z,18.47
2018-08-23T05:47:36.329Z,18.47
2018-08-23T05:48:36.260Z,18.50
2018-08-23T05:49:36.244Z,18.54
2018-08-23T05:50:36.235Z,18.60
2018-08-23T05:51:36.214Z,18.65
2018-08-23T05:52:36.202Z,18.65
2018-08-23T05:53:36.192Z,18.75
2018-08-23T05:54:36.174Z,18.69
2018-08-23T05:55:36.159Z,18.76
2018-08-23T05:56:36.140Z,18.85
2018-08-23T05:57:36.125Z,18.92
2018-08-23T05:58:36.115Z,18.82
2018-08-23T05:59:36.099Z,18.94
2018-08-23T06:00:36.081Z,18.98
2018-08-23T06:01:36.065Z,19.06
2018-08-23T06:02:36.080Z,19.23
2018-08-23T06:03:36.045Z,19.16
2018-08-23T06:04:36.030Z,19.28
2018-08-23T06:05:36.008Z,19.32
2018-08-23T06:06:35.992Z,19.39
2018-08-23T06:07:35.978Z,19.37
2018-08-23T06:08:35.963Z,19.31
2018-08-23T06:09:35.949Z,19.44
2018-08-23T06:10:35.933Z,19.48
2018-08-23T06:11:35.924Z,19.61
2018-08-23T06:12:35.904Z,19.62
2018-08-23T06:13:35.894Z,19.62
2018-08-23T06:14:35.874Z,19.74
2018-08-23T06:15:35.863Z,19.78
2018-08-23T06:16:35.855Z,19.91
2018-08-23T06:17:35.831Z,19.95
2018-08-23T06:18:35.822Z,19.99
2018-08-23T06:19:35.812Z,20.13
2018-08-23T06:20:35.790Z,20.08
2018-08-23T06:21:35.777Z,20.13
2018-08-23T06:22:35.759Z,20.24
2018-08-23T06:23:35.744Z,20.32
2018-08-23T06:24:35.730Z,20.42
2018-08-23T06:25:35.716Z,20.54
2018-08-23T06:26:35.701Z,20.54
2018-08-23T06:27:35.699Z,20.66
2018-08-23T06:28:35.677Z,20.73
2018-08-23T06:29:35.659Z,20.88
2018-08-23T06:30:35.645Z,20.94
2018-08-23T06:31:35.631Z,20.95
2018-08-23T06:32:35.618Z,21.09
2018-08-23T06:33:35.771Z,21.12
2018-08-23T06:34:35.589Z,21.17
2018-08-23T06:35:35.620Z,21.28
2018-08-23T06:36:35.562Z,21.40
2018-08-23T06:37:35.559Z,21.43
2018-08-23T06:38:35.553Z,21.52
2018-08-23T06:39:35.519Z,21.56
2018-08-23T06:40:35.508Z,21.68
2018-08-23T06:41:35.494Z,21.74
2018-08-23T06:42:35.479Z,21.71
2018-08-23T06:43:35.467Z,21.86
2018-08-23T06:44:35.494Z,21.88
2018-08-23T06:45:35.439Z,21.99
2018-08-23T06:46:35.424Z,22.00
2018-08-23T06:47:35.615Z,22.05
2018-08-23T06:48:35.399Z,22.18
2018-08-23T06:49:35.388Z,22.25
2018-08-23T06:50:35.372Z,22.31
2018-08-23T06:51:35.359Z,22.36
2018-08-23T06:52:35.354Z,22.47
2018-08-23T06:53:35.334Z,22.46
2018-08-23T06:54:37.940Z,22.54
2018-08-23T06:55:35.307Z,22.73
2018-08-23T06:56:35.293Z,22.82
2018-08-23T06:57:35.279Z,23.00
2018-08-23T06:58:35.266Z,23.23
2018-08-23T06:59:35.253Z,23.55
2018-08-23T07:00:35.241Z,23.88
2018-08-23T07:01:35.226Z,24.02
2018-08-23T07:02:35.214Z,24.05
2018-08-23T07:03:35.205Z,24.10
2018-08-23T07:04:35.190Z,24.27
2018-08-23T07:05:35.274Z,24.27
2018-08-23T07:06:35.224Z,24.37
2018-08-23T07:07:35.154Z,24.39
2018-08-23T07:08:35.141Z,24.50
2018-08-23T07:09:35.125Z,24.53
2018-08-23T07:10:35.134Z,24.62
2018-08-23T07:11:35.165Z,24.96
2018-08-23T07:12:35.093Z,25.46
2018-08-23T07:13:35.082Z,26.09
2018-08-23T07:14:35.070Z,26.69
2018-08-23T07:15:35.057Z,27.31
2018-08-23T07:16:35.045Z,27.81
2018-08-23T07:17:35.095Z,28.30
2018-08-23T07:18:35.026Z,28.70
2018-08-23T07:19:35.015Z,29.23
2018-08-23T07:20:35.002Z,29.57
2018-08-23T07:21:34.992Z,30.01
2018-08-23T07:22:35.043Z,30.16
2018-08-23T07:23:34.972Z,30.42
2018-08-23T07:24:34.968Z,30.92
2018-08-23T07:25:34.955Z,31.23
2018-08-23T07:26:34.965Z,31.68
2018-08-23T07:27:34.936Z,31.88
2018-08-23T07:28:34.930Z,32.23
2018-08-23T07:29:34.917Z,32.67
2018-08-23T07:30:34.914Z,32.74
2018-08-23T07:31:34.912Z,32.79
2018-08-23T07:32:34.897Z,32.99
2018-08-23T07:33:34.884Z,33.12
2018-08-23T07:34:34.876Z,33.32
2018-08-23T07:35:34.869Z,33.28
2018-08-23T07:36:34.863Z,33.41
2018-08-23T07:37:34.863Z,33.82
2018-08-23T07:38:34.857Z,33.91
2018-08-23T07:39:34.840Z,34.21
2018-08-23T07:40:34.845Z,34.47
2018-08-23T07:41:34.825Z,34.72
2018-08-23T07:42:34.822Z,34.70
2018-08-23T07:43:34.812Z,34.96
2018-08-23T07:44:34.806Z,35.15
2018-08-23T07:45:34.799Z,35.10
2018-08-23T07:46:34.792Z,34.92
2018-08-23T07:47:34.789Z,35.19
2018-08-23T07:48:34.861Z,35.44
2018-08-23T07:49:34.776Z,35.40
2018-08-23T07:50:34.771Z,35.37
2018-08-23T07:51:34.765Z,35.47
2018-08-23T07:52:34.783Z,35.47
2018-08-23T07:53:34.755Z,35.59
2018-08-23T07:54:34.762Z,35.50
2018-08-23T07:55:34.743Z,35.65
2018-08-23T07:56:34.738Z,36.13
2018-08-23T07:57:34.730Z,36.20
2018-08-23T07:58:34.727Z,36.07
2018-08-23T07:59:34.722Z,36.17
2018-08-23T08:00:34.720Z,36.19
2018-08-23T08:01:34.723Z,36.25
2018-08-23T08:02:34.713Z,36.38
2018-08-23T08:03:34.702Z,36.54
2018-08-23T08:04:34.700Z,35.87
2018-08-23T08:05:34.711Z,36.08
2018-08-23T08:06:34.691Z,36.31
2018-08-23T08:07:34.685Z,36.57
2018-08-23T08:08:34.685Z,37.00
2018-08-23T08:09:37.363Z,37.17
2018-08-23T08:10:34.678Z,37.17
2018-08-23T08:11:34.668Z,37.02
2018-08-23T08:12:34.665Z,37.06
2018-08-23T08:13:34.659Z,36.93
2018-08-23T08:14:34.654Z,37.09
2018-08-23T08:15:34.655Z,37.40
2018-08-23T08:16:34.646Z,37.49
2018-08-23T08:17:34.641Z,37.34
2018-08-23T08:18:34.640Z,37.09
2018-08-23T08:19:34.637Z,37.03
2018-08-23T08:20:34.637Z,36.84
2018-08-23T08:21:34.675Z,36.95
2018-08-23T08:22:34.624Z,36.49
2018-08-23T08:23:34.619Z,36.27
2018-08-23T08:24:34.616Z,36.15
2018-08-23T08:25:34.615Z,35.97
2018-08-23T08:26:34.611Z,36.47
2018-08-23T08:27:34.613Z,36.62
2018-08-23T08:28:34.605Z,36.07
2018-08-23T08:29:34.597Z,35.75
2018-08-23T08:30:34.596Z,35.60
2018-08-23T08:31:34.600Z,35.29
2018-08-23T08:32:34.588Z,35.09
2018-08-23T08:33:34.586Z,34.66
2018-08-23T08:34:34.580Z,34.24
2018-08-23T08:35:34.575Z,34.05
2018-08-23T08:36:34.574Z,33.90
2018-08-23T08:37:34.568Z,33.69
2018-08-23T08:38:34.562Z,33.41
2018-08-23T08:39:34.561Z,33.16
2018-08-23T08:40:34.556Z,33.03
2018-08-23T08:41:34.552Z,32.87
2018-08-23T08:42:34.556Z,32.75
2018-08-23T08:43:34.594Z,32.65
2018-08-23T08:44:34.539Z,32.63
2018-08-23T08:45:34.542Z,32.56
2018-08-23T08:46:34.536Z,32.51
2018-08-23T08:47:34.527Z,32.48
2018-08-23T08:48:34.521Z,32.50
2018-08-23T08:49:34.515Z,32.52
2018-08-23T08:50:34.591Z,32.48
2018-08-23T08:51:34.506Z,32.44
2018-08-23T08:52:34.501Z,32.37
2018-08-23T08:53:34.496Z,32.22
2018-08-23T08:54:34.493Z,32.13
2018-08-23T08:55:34.488Z,32.10
2018-08-23T08:56:34.490Z,32.13
2018-08-23T08:57:34.508Z,32.11
2018-08-23T08:58:34.475Z,32.14
2018-08-23T08:59:34.475Z,32.11
2018-08-23T09:00:34.466Z,32.22
2018-08-23T09:01:34.469Z,32.26
2018-08-23T09:02:34.453Z,32.26
2018-08-23T09:03:34.449Z,32.30
2018-08-23T09:04:34.446Z,32.30
2018-08-23T09:05:34.434Z,32.32
2018-08-23T09:06:34.433Z,32.32
2018-08-23T09:07:34.429Z,32.37
2018-08-23T09:08:34.424Z,32.29
2018-08-23T09:09:34.414Z,32.23
2018-08-23T09:10:34.409Z,32.15
2018-08-23T09:11:34.408Z,32.14
2018-08-23T09:12:34.399Z,32.18
2018-08-23T09:13:34.393Z,32.25
2018-08-23T09:14:34.389Z,32.23
2018-08-23T09:16:16.918Z,32.44
2018-08-23T09:17:16.912Z,32.41
2018-08-23T09:18:16.912Z,32.43
2018-08-23T09:19:16.901Z,32.50
2018-08-23T09:20:16.894Z,32.48
2018-08-23T09:21:16.889Z,32.44
2018-08-23T09:22:16.884Z,32.44
2018-08-23T09:23:16.880Z,32.44
2018-08-23T09:24:16.872Z,32.41
2018-08-23T09:25:16.896Z,32.59
2018-08-23T09:26:16.861Z,32.51
2018-08-23T09:27:16.941Z,32.66
2018-08-23T09:28:16.856Z,32.66
2018-08-23T09:29:16.842Z,32.65
2018-08-23T09:30:16.837Z,32.66
2018-08-23T09:31:16.831Z,32.59
2018-08-23T09:32:16.830Z,32.62
2018-08-23T09:33:16.820Z,32.57
2018-08-23T09:34:16.815Z,32.67
2018-08-23T09:35:16.808Z,32.63
2018-08-23T09:36:16.803Z,32.72
2018-08-23T09:37:16.806Z,32.72
2018-08-23T09:38:16.791Z,32.66
2018-08-23T09:39:16.783Z,32.75
2018-08-23T09:40:16.778Z,32.66
2018-08-23T09:41:16.773Z,32.75
2018-08-23T09:42:16.767Z,32.79
2018-08-23T09:43:16.761Z,32.75
2018-08-23T09:44:16.759Z,32.81
2018-08-23T09:45:16.756Z,32.75
2018-08-23T09:46:16.759Z,32.77
2018-08-23T09:47:16.740Z,32.81
2018-08-23T09:48:16.733Z,32.85
2018-08-23T09:49:16.723Z,32.93
2018-08-23T09:50:16.861Z,32.93
2018-08-23T09:51:16.783Z,32.89
2018-08-23T09:52:16.734Z,32.85
2018-08-23T09:53:16.701Z,32.96
2018-08-23T09:54:16.695Z,32.96
2018-08-23T09:55:16.689Z,33.01
2018-08-23T09:56:16.683Z,33.07
2018-08-23T09:57:16.678Z,33.11
2018-08-23T09:58:16.680Z,33.47
2018-08-23T09:59:16.664Z,33.73
2018-08-23T10:00:16.658Z,33.84
2018-08-23T10:01:16.654Z,34.05
2018-08-23T10:02:16.649Z,34.24
2018-08-23T10:03:16.642Z,34.43
2018-08-23T10:04:16.717Z,34.81
2018-08-23T10:05:16.633Z,35.07
2018-08-23T10:06:16.626Z,35.50
2018-08-23T10:07:16.626Z,35.74
2018-08-23T10:08:16.662Z,35.89
2018-08-23T10:09:16.617Z,36.05
2018-08-23T10:10:16.606Z,36.31
2018-08-23T10:11:16.621Z,36.35
2018-08-23T10:12:16.595Z,36.39
2018-08-23T10:13:16.590Z,36.41
2018-08-23T10:14:16.585Z,36.19
2018-08-23T10:15:16.590Z,36.23
2018-08-23T10:16:16.579Z,36.68
2018-08-23T10:17:16.572Z,36.81
2018-08-23T10:18:16.577Z,36.80
2018-08-23T10:19:16.564Z,36.84
2018-08-23T10:20:16.565Z,36.95
2018-08-23T10:21:16.554Z,36.93
2018-08-23T10:22:16.552Z,37.18
2018-08-23T10:23:16.549Z,37.25
2018-08-23T10:24:16.542Z,37.36
2018-08-23T10:25:16.543Z,37.36
2018-08-23T10:26:16.536Z,37.47
2018-08-23T10:27:16.535Z,37.75
2018-08-23T10:28:16.531Z,38.03
2018-08-23T10:29:16.523Z,38.34
2018-08-23T10:30:16.521Z,38.56
2018-08-23T10:31:16.516Z,38.75
2018-08-23T10:32:16.613Z,38.87
2018-08-23T10:33:16.512Z,38.90
2018-08-23T10:34:16.510Z,38.57
2018-08-23T10:35:16.505Z,38.86
2018-08-23T10:36:16.510Z,38.78
2018-08-23T10:37:16.504Z,39.10
2018-08-23T10:38:16.572Z,38.99
2018-08-23T10:39:16.498Z,39.03
2018-08-23T10:40:16.495Z,39.07
2018-08-23T10:41:16.491Z,39.33
2018-08-23T10:42:16.488Z,39.63
2018-08-23T10:43:16.488Z,39.85
2018-08-23T10:44:16.489Z,40.07
2018-08-23T10:45:16.482Z,40.41
2018-08-23T10:46:16.480Z,40.69
2018-08-23T10:47:16.797Z,40.84
2018-08-23T10:48:16.475Z,40.96
2018-08-23T10:49:16.475Z,40.80
2018-08-23T10:50:16.475Z,40.72
2018-08-23T10:51:16.469Z,40.67
2018-08-23T10:52:16.467Z,40.82
2018-08-23T10:53:16.466Z,40.67
2018-08-23T10:54:16.464Z,40.77
2018-08-23T10:55:16.462Z,40.55
2018-08-23T10:56:16.460Z,40.32
2018-08-23T10:57:16.462Z,40.58
2018-08-23T10:58:16.457Z,40.82
2018-08-23T10:59:16.464Z,41.02
2018-08-23T11:00:16.458Z,41.23
2018-08-23T11:01:16.453Z,41.44
2018-08-23T11:02:16.453Z,41.67
2018-08-23T11:03:16.450Z,41.69
2018-08-23T11:04:16.451Z,41.69
2018-08-23T11:05:16.450Z,41.91
2018-08-23T11:07:16.469Z,42.23
2018-08-23T11:08:16.448Z,42.27
2018-08-23T11:09:16.447Z,42.49
2018-08-23T11:10:16.446Z,42.68
2018-08-23T11:11:16.451Z,42.62
2018-08-23T11:12:16.445Z,42.61
2018-08-23T11:13:16.461Z,42.77
2018-08-23T11:14:16.445Z,42.77
2018-08-23T11:15:16.443Z,42.83
2018-08-23T11:16:16.447Z,43.07
2018-08-23T11:17:16.567Z,43.42
2018-08-23T11:18:16.443Z,43.78
2018-08-23T11:19:16.447Z,43.76
2018-08-23T11:20:16.444Z,43.95
2018-08-23T11:21:16.443Z,44.24
2018-08-23T11:22:16.445Z,44.40
2018-08-23T11:23:16.444Z,44.28
2018-08-23T11:24:16.448Z,44.18
2018-08-23T11:25:16.446Z,44.02
2018-08-23T11:26:16.447Z,43.97
2018-08-23T11:27:16.445Z,44.02
2018-08-23T11:28:16.447Z,44.00
2018-08-23T11:29:16.448Z,43.88
2018-08-23T11:30:16.450Z,43.76
2018-08-23T11:31:16.448Z,43.66
2018-08-23T11:32:16.452Z,43.41
2018-08-23T11:33:16.452Z,43.42
2018-08-23T11:34:16.454Z,43.64
2018-08-23T11:35:16.557Z,43.87
2018-08-23T11:36:16.458Z,43.83
2018-08-23T11:37:16.455Z,43.52
2018-08-23T11:38:16.457Z,43.34
2018-08-23T11:39:16.458Z,43.19
2018-08-23T11:40:16.462Z,43.22
2018-08-23T11:41:16.462Z,43.30
2018-08-23T11:42:16.462Z,43.00
2018-08-23T11:43:16.464Z,43.05
2018-08-23T11:44:16.465Z,42.96
2018-08-23T11:45:16.469Z,43.19
2018-08-23T11:46:16.468Z,43.37
2018-08-23T11:47:16.468Z,43.49
2018-08-23T11:48:16.471Z,43.56
2018-08-23T11:49:16.475Z,43.31
2018-08-23T11:50:16.475Z,43.11
2018-08-23T11:51:16.473Z,43.22
2018-08-23T11:52:16.479Z,43.57
2018-08-23T11:53:16.650Z,43.87
2018-08-23T11:54:16.479Z,44.16
2018-08-23T11:55:16.479Z,44.21
2018-08-23T11:56:16.482Z,44.37
2018-08-23T11:57:16.485Z,44.43
2018-08-23T11:58:16.484Z,44.40
2018-08-23T11:59:16.586Z,44.48
2018-08-23T12:00:16.497Z,44.60
2018-08-23T12:01:16.489Z,44.37
2018-08-23T12:02:16.488Z,44.06
2018-08-23T12:03:16.494Z,43.98
2018-08-23T12:04:16.496Z,44.19
2018-08-23T12:05:16.492Z,44.43
2018-08-23T12:06:16.499Z,44.31
2018-08-23T12:07:16.495Z,44.29
2018-08-23T12:08:16.500Z,44.29
2018-08-23T12:09:16.498Z,43.76
2018-08-23T12:10:16.500Z,43.72
2018-08-23T12:11:16.500Z,43.84
2018-08-23T12:12:16.504Z,43.47
2018-08-23T12:13:16.510Z,43.56
2018-08-23T12:14:16.504Z,43.45
2018-08-23T12:15:16.505Z,43.41
2018-08-23T12:16:16.508Z,43.71
2018-08-23T12:17:16.512Z,43.56
2018-08-23T12:18:16.511Z,43.38
2018-08-23T12:19:16.511Z,43.27
2018-08-23T12:20:16.513Z,43.46
2018-08-23T12:21:16.514Z,43.41
2018-08-23T12:22:16.515Z,43.65
2018-08-23T12:23:16.517Z,43.81
2018-08-23T12:24:16.516Z,44.00
2018-08-23T12:25:16.519Z,43.97
2018-08-23T12:26:16.582Z,43.47
2018-08-23T12:27:16.520Z,43.53
2018-08-23T12:28:16.520Z,43.42
2018-08-23T12:29:16.523Z,43.00
2018-08-23T12:30:16.521Z,42.46
2018-08-23T12:31:16.524Z,42.08
2018-08-23T12:32:16.524Z,41.84
2018-08-23T12:33:16.526Z,41.96
2018-08-23T12:34:16.526Z,42.13
2018-08-23T12:35:16.528Z,42.25
2018-08-23T12:36:16.524Z,42.57
2018-08-23T12:37:16.529Z,43.07
2018-08-23T12:38:16.526Z,42.96
2018-08-23T12:39:16.538Z,42.89
2018-08-23T12:40:16.528Z,42.96
2018-08-23T12:41:16.529Z,42.95
2018-08-23T12:42:16.526Z,43.00
2018-08-23T12:43:16.525Z,43.05
2018-08-23T12:44:16.525Z,42.96
2018-08-23T12:45:16.525Z,43.00
2018-08-23T12:46:16.573Z,42.77
2018-08-23T12:47:16.523Z,42.47
2018-08-23T12:48:16.524Z,41.99
2018-08-23T12:49:16.590Z,41.89
2018-08-23T12:50:16.523Z,41.63
2018-08-23T12:51:16.532Z,41.33
2018-08-23T12:52:16.520Z,41.04
2018-08-23T12:53:16.548Z,40.91
2018-08-23T12:54:16.519Z,40.79